Time;durP1;ratioP1;P1;durP2;ratioP2;P2;SDS_P1;SDS_P2;PMS_P1;PMS_P2;Temp;Humidity;BMP_temperature;BMP_pressure;BME280_temperature;BME280_humidity;BME280_pressure;Samples;Min_cycle;Max_cycle;Signal;HPM_P1;HPM_P2
2023/08/30 00:01:58;;;;;;;2.57;2.20;;;;;;;;;;6217451;23;20522;-60
2023/08/30 00:04:26;;;;;;;2.23;1.80;;;;;;;;;;6217302;23;20393;-60
2023/08/30 00:06:54;;;;;;;1.90;1.80;;;;;;;;;;6217364;23;20488;-60
2023/08/30 00:09:22;;;;;;;2.23;2.07;;;;;;;;;;6217340;23;20492;-60
2023/08/30 00:11:48;;;;;;;3.90;2.57;;;;;;;;;;6217297;23;20408;-60
2023/08/30 00:14:17;;;;;;;2.00;1.90;;;;;;;;;;6217109;23;20972;-60
2023/08/30 00:16:43;;;;;;;2.30;2.10;;;;;;;;;;6217254;23;20437;-60
2023/08/30 00:19:10;;;;;;;3.43;2.50;;;;;;;;;;6217161;23;20433;-60
2023/08/30 00:21:38;;;;;;;3.17;2.97;;;;;;;;;;6217299;23;20405;-60
2023/08/30 00:24:05;;;;;;;2.90;2.30;;;;;;;;;;6217413;23;20406;-60
2023/08/30 00:26:32;;;;;;;2.50;2.30;;;;;;;;;;6217174;23;20412;-60
2023/08/30 00:28:59;;;;;;;3.30;3.10;;;;;;;;;;6216871;23;20488;-60
2023/08/30 00:31:27;;;;;;;2.70;2.50;;;;;;;;;;6217200;23;20496;-60
2023/08/30 00:33:54;;;;;;;5.70;3.10;;;;;;;;;;6217361;23;20496;-60
2023/08/30 00:36:22;;;;;;;2.20;2.10;;;;;;;;;;6217138;23;20484;-60
2023/08/30 00:38:49;;;;;;;3.03;2.83;;;;;;;;;;6217035;23;20411;-60
2023/08/30 00:41:16;;;;;;;5.00;2.97;;;;;;;;;;6216921;23;20447;-60
2023/08/30 00:43:43;;;;;;;2.47;2.27;;;;;;;;;;6217237;23;20773;-60
2023/08/30 00:46:10;;;;;;;2.60;2.40;;;;;;;;;;6217079;23;20488;-60
2023/08/30 00:48:38;;;;;;;2.20;2.10;;;;;;;;;;6217492;23;20947;-60
2023/08/30 00:51:05;;;;;;;2.77;2.20;;;;;;;;;;6216918;23;20492;-60
2023/08/30 00:53:32;;;;;;;2.93;2.73;;;;;;;;;;6216205;23;20471;-60
2023/08/30 00:55:59;;;;;;;2.40;2.20;;;;;;;;;;6217063;23;20512;-60
2023/08/30 00:58:27;;;;;;;2.70;2.50;;;;;;;;;;6216878;23;20487;-60
2023/08/30 01:00:54;;;;;;;2.73;2.53;;;;;;;;;;6216775;23;20437;-60
2023/08/30 01:03:22;;;;;;;2.30;2.20;;;;;;;;;;6216839;23;20459;-60
2023/08/30 01:05:51;;;;;;;3.60;2.70;;;;;;;;;;6216708;23;20416;-60
2023/08/30 01:08:18;;;;;;;2.20;2.10;;;;;;;;;;6216775;23;20492;-60
2023/08/30 01:10:48;;;;;;;3.10;2.17;;;;;;;;;;6216780;23;20488;-60
2023/08/30 01:13:20;;;;;;;2.43;2.30;;;;;;;;;;6226612;23;20786;-60
2023/08/30 01:15:48;;;;;;;2.40;2.20;;;;;;;;;;6226670;23;20399;-60
2023/08/30 01:18:16;;;;;;;2.73;2.53;;;;;;;;;;6216682;23;20401;-61
2023/08/30 01:20:44;;;;;;;2.30;2.20;;;;;;;;;;6216561;23;20523;-60
2023/08/30 01:23:26;;;;;;;6.13;2.10;;;;;;;;;;6216506;23;20409;-60
2023/08/30 01:25:56;;;;;;;2.10;2.00;;;;;;;;;;6226549;23;20404;-60
2023/08/30 01:28:26;;;;;;;2.00;1.90;;;;;;;;;;6216418;23;20480;-60
2023/08/30 01:30:54;;;;;;;2.90;2.70;;;;;;;;;;6216405;23;20401;-60
2023/08/30 01:33:22;;;;;;;2.63;2.40;;;;;;;;;;6216374;23;20431;-60
2023/08/30 01:35:49;;;;;;;2.80;2.60;;;;;;;;;;6216503;23;20774;-60
2023/08/30 01:38:16;;;;;;;3.00;2.40;;;;;;;;;;6216479;23;20412;-60
2023/08/30 01:40:44;;;;;;;2.63;2.43;;;;;;;;;;6216436;23;20480;-60
2023/08/30 01:43:11;;;;;;;2.10;2.00;;;;;;;;;;6216426;23;20495;-61
2023/08/30 01:45:40;;;;;;;2.60;2.40;;;;;;;;;;6216467;23;20717;-60
2023/08/30 01:48:08;;;;;;;2.87;2.67;;;;;;;;;;6216303;23;20492;-60
2023/08/30 01:50:36;;;;;;;2.77;2.57;;;;;;;;;;6216300;23;20413;-60
2023/08/30 01:53:03;;;;;;;3.20;2.90;;;;;;;;;;6216078;23;20464;-60
2023/08/30 01:55:32;;;;;;;2.60;2.50;;;;;;;;;;6216302;23;20721;-60
2023/08/30 01:57:59;;;;;;;3.03;2.83;;;;;;;;;;6216246;23;20491;-60
2023/08/30 02:00:26;;;;;;;2.80;2.60;;;;;;;;;;6216207;23;20816;-61
2023/08/30 02:02:54;;;;;;;2.30;2.10;;;;;;;;;;6216265;23;20484;-60
2023/08/30 02:05:21;;;;;;;3.33;3.03;;;;;;;;;;6216295;23;20496;-60
2023/08/30 02:07:50;;;;;;;3.10;2.87;;;;;;;;;;6216323;23;20484;-60
2023/08/30 02:10:21;;;;;;;3.63;3.40;;;;;;;;;;6215619;23;20964;-61
2023/08/30 02:12:49;;;;;;;3.53;3.33;;;;;;;;;;6226331;23;20480;-60
2023/08/30 02:15:17;;;;;;;3.37;3.17;;;;;;;;;;6216129;23;20792;-60
2023/08/30 02:17:44;;;;;;;3.30;3.00;;;;;;;;;;6216495;23;20952;-60
2023/08/30 02:20:13;;;;;;;4.10;3.87;;;;;;;;;;6215987;23;20971;-60
2023/08/30 02:22:40;;;;;;;3.80;3.50;;;;;;;;;;6216033;23;20484;-60
2023/08/30 02:25:07;;;;;;;4.03;3.73;;;;;;;;;;6215994;23;20799;-60
2023/08/30 02:27:34;;;;;;;4.60;4.20;;;;;;;;;;6216069;23;20954;-60
2023/08/30 02:30:02;;;;;;;4.03;3.73;;;;;;;;;;6216075;23;20517;-60
2023/08/30 02:32:29;;;;;;;4.87;4.47;;;;;;;;;;6215967;23;20405;-60
2023/08/30 02:34:57;;;;;;;5.33;4.83;;;;;;;;;;6216019;23;20499;-60
2023/08/30 02:37:26;;;;;;;5.07;4.60;;;;;;;;;;6215497;23;20876;-60
2023/08/30 02:39:52;;;;;;;5.90;5.43;;;;;;;;;;6215809;23;20488;-60
2023/08/30 02:42:19;;;;;;;4.70;4.37;;;;;;;;;;6215954;23;20440;-60
2023/08/30 02:44:46;;;;;;;4.70;4.40;;;;;;;;;;6215981;23;20488;-60
2023/08/30 02:47:13;;;;;;;5.20;4.83;;;;;;;;;;6216009;23;20491;-60
2023/08/30 02:49:40;;;;;;;5.47;5.03;;;;;;;;;;6216035;23;20960;-60
2023/08/30 02:52:08;;;;;;;6.53;6.00;;;;;;;;;;6215760;23;20488;-61
2023/08/30 02:54:36;;;;;;;5.93;5.43;;;;;;;;;;6215874;23;20801;-60
2023/08/30 02:57:04;;;;;;;5.40;5.00;;;;;;;;;;6215953;23;21060;-60
2023/08/30 02:59:30;;;;;;;5.50;5.10;;;;;;;;;;6215855;23;20401;-60
2023/08/30 03:01:56;;;;;;;5.37;4.97;;;;;;;;;;6215478;23;21039;-60
2023/08/30 03:04:23;;;;;;;6.20;5.60;;;;;;;;;;6215929;23;20445;-60
2023/08/30 03:06:50;;;;;;;6.20;5.80;;;;;;;;;;6216168;23;20488;-60
2023/08/30 03:09:17;;;;;;;4.83;4.40;;;;;;;;;;6215857;23;20488;-60
2023/08/30 03:11:45;;;;;;;5.30;4.90;;;;;;;;;;6215863;23;20496;-60
2023/08/30 03:14:12;;;;;;;5.13;4.63;;;;;;;;;;6215504;23;20990;-60
2023/08/30 03:16:39;;;;;;;5.60;5.10;;;;;;;;;;6216061;23;20456;-60
2023/08/30 03:19:07;;;;;;;5.50;5.10;;;;;;;;;;6217848;23;20487;-61
2023/08/30 03:21:34;;;;;;;5.33;4.90;;;;;;;;;;6217654;23;20820;-60
2023/08/30 03:24:01;;;;;;;4.60;4.30;;;;;;;;;;6217651;23;20405;-60
2023/08/30 03:26:28;;;;;;;5.10;3.80;;;;;;;;;;6217803;23;20491;-60
2023/08/30 03:28:56;;;;;;;5.07;4.70;;;;;;;;;;6217661;23;20405;-60
2023/08/30 03:31:23;;;;;;;5.30;4.90;;;;;;;;;;6217671;23;20496;-60
2023/08/30 03:33:50;;;;;;;6.13;4.73;;;;;;;;;;6217635;23;20437;-60
2023/08/30 03:36:18;;;;;;;5.57;5.27;;;;;;;;;;6217977;23;20443;-60
2023/08/30 03:38:45;;;;;;;5.43;5.03;;;;;;;;;;6217656;23;20488;-60
2023/08/30 03:41:13;;;;;;;4.37;3.97;;;;;;;;;;6217481;23;20519;-60
2023/08/30 03:43:40;;;;;;;4.60;4.30;;;;;;;;;;6217527;23;20405;-60
2023/08/30 03:46:09;;;;;;;5.77;4.30;;;;;;;;;;6217606;23;20487;-61
2023/08/30 03:48:36;;;;;;;5.53;5.13;;;;;;;;;;6217456;23;20897;-60
2023/08/30 03:51:02;;;;;;;4.27;3.87;;;;;;;;;;6217540;23;20484;-60
2023/08/30 03:53:30;;;;;;;4.40;4.10;;;;;;;;;;6217077;23;20456;-60
2023/08/30 03:55:57;;;;;;;4.10;3.80;;;;;;;;;;6217057;23;20408;-60
2023/08/30 03:58:24;;;;;;;4.97;4.50;;;;;;;;;;6217430;23;20401;-60
2023/08/30 04:00:51;;;;;;;4.30;4.10;;;;;;;;;;6217400;23;20472;-60
2023/08/30 04:03:20;;;;;;;4.60;4.17;;;;;;;;;;6217365;23;20499;-60
2023/08/30 04:05:46;;;;;;;4.60;4.30;;;;;;;;;;6217316;23;20488;-60
2023/08/30 04:08:13;;;;;;;3.90;3.70;;;;;;;;;;6217459;23;20786;-60
2023/08/30 04:10:41;;;;;;;4.23;3.93;;;;;;;;;;6217328;23;20492;-60
2023/08/30 04:13:09;;;;;;;5.00;4.60;;;;;;;;;;6217161;23;20467;-60
2023/08/30 04:15:36;;;;;;;5.33;4.97;;;;;;;;;;6217187;23;20773;-60
2023/08/30 04:18:03;;;;;;;4.87;4.57;;;;;;;;;;6217184;23;20480;-60
2023/08/30 04:20:32;;;;;;;4.60;4.17;;;;;;;;;;6217176;23;20492;-60
2023/08/30 04:23:01;;;;;;;4.40;4.00;;;;;;;;;;6217016;23;20432;-60
2023/08/30 04:25:28;;;;;;;4.03;3.73;;;;;;;;;;6216923;23;20455;-60
2023/08/30 04:27:55;;;;;;;5.87;4.17;;;;;;;;;;6216867;23;20444;-60
2023/08/30 04:30:22;;;;;;;4.97;4.70;;;;;;;;;;6217035;23;20492;-60
2023/08/30 04:32:49;;;;;;;4.23;3.93;;;;;;;;;;6217091;23;20496;-60
2023/08/30 04:35:15;;;;;;;3.87;3.67;;;;;;;;;;6216958;23;20976;-60
2023/08/30 04:37:44;;;;;;;4.40;4.10;;;;;;;;;;6217199;23;20495;-60
2023/08/30 04:40:11;;;;;;;4.20;4.00;;;;;;;;;;6217017;23;20493;-60
2023/08/30 04:42:39;;;;;;;4.23;3.93;;;;;;;;;;6216844;23;20798;-60
2023/08/30 04:45:06;;;;;;;4.23;3.93;;;;;;;;;;6216932;23;20511;-60
2023/08/30 04:47:33;;;;;;;4.07;3.77;;;;;;;;;;6217223;23;20489;-60
2023/08/30 04:50:01;;;;;;;4.73;4.33;;;;;;;;;;6216977;23;20429;-60
2023/08/30 04:52:27;;;;;;;4.07;3.77;;;;;;;;;;6216643;23;20534;-60
2023/08/30 04:54:56;;;;;;;4.23;3.93;;;;;;;;;;6216888;23;20717;-60
2023/08/30 04:57:23;;;;;;;5.10;4.70;;;;;;;;;;6216372;23;20984;-60
2023/08/30 04:59:50;;;;;;;5.20;4.67;;;;;;;;;;6216861;23;20496;-60
2023/08/30 05:02:16;;;;;;;5.97;5.37;;;;;;;;;;6216738;23;20520;-60
2023/08/30 05:04:43;;;;;;;4.20;3.90;;;;;;;;;;6216855;23;20412;-60
2023/08/30 05:07:10;;;;;;;4.50;4.20;;;;;;;;;;6216902;23;20792;-60
2023/08/30 05:09:37;;;;;;;3.97;3.67;;;;;;;;;;6216707;23;20487;-60
2023/08/30 05:12:07;;;;;;;4.50;4.20;;;;;;;;;;6216684;23;20409;-60
2023/08/30 05:14:34;;;;;;;6.30;4.40;;;;;;;;;;6216385;23;20484;-60
2023/08/30 05:17:01;;;;;;;4.43;4.20;;;;;;;;;;6216257;23;20488;-60
2023/08/30 05:19:28;;;;;;;4.40;4.10;;;;;;;;;;6216610;23;20497;-60
2023/08/30 05:21:55;;;;;;;5.13;4.23;;;;;;;;;;6216483;23;20437;-60
2023/08/30 05:24:22;;;;;;;4.73;4.37;;;;;;;;;;6216507;23;20411;-60
2023/08/30 05:26:49;;;;;;;3.83;3.63;;;;;;;;;;6216821;23;20437;-60
2023/08/30 05:29:17;;;;;;;4.50;4.20;;;;;;;;;;6216502;23;20432;-60
2023/08/30 05:31:44;;;;;;;5.00;4.60;;;;;;;;;;6216321;23;20488;-60
2023/08/30 05:34:11;;;;;;;4.90;3.90;;;;;;;;;;6216412;23;20483;-60
2023/08/30 05:36:38;;;;;;;5.10;4.60;;;;;;;;;;6216361;23;20484;-60
2023/08/30 05:39:05;;;;;;;5.17;4.73;;;;;;;;;;6216403;23;20493;-61
2023/08/30 05:41:32;;;;;;;3.90;3.57;;;;;;;;;;6216263;23;20495;-60
2023/08/30 05:43:59;;;;;;;5.07;4.77;;;;;;;;;;6216386;23;20444;-60
2023/08/30 05:46:27;;;;;;;3.80;3.50;;;;;;;;;;6216307;23;20492;-60
2023/08/30 05:48:55;;;;;;;5.20;4.53;;;;;;;;;;6216309;23;20500;-60
2023/08/30 05:51:22;;;;;;;4.00;3.70;;;;;;;;;;6216284;23;20408;-60
2023/08/30 05:53:48;;;;;;;5.30;4.00;;;;;;;;;;6215901;23;20433;-60
2023/08/30 05:56:15;;;;;;;4.00;3.63;;;;;;;;;;6216244;23;20497;-60
2023/08/30 05:58:42;;;;;;;4.33;4.07;;;;;;;;;;6216413;23;20480;-60
2023/08/30 06:01:09;;;;;;;5.00;4.60;;;;;;;;;;6216089;23;20770;-60
2023/08/30 06:03:37;;;;;;;4.37;4.07;;;;;;;;;;6216045;23;20484;-61
2023/08/30 06:06:04;;;;;;;7.30;4.70;;;;;;;;;;6216065;23;20492;-60
2023/08/30 06:08:31;;;;;;;4.87;3.77;;;;;;;;;;6216138;23;20488;-60
2023/08/30 06:10:58;;;;;;;4.20;3.90;;;;;;;;;;6216143;23;20401;-60
2023/08/30 06:13:25;;;;;;;4.70;4.40;;;;;;;;;;6216167;23;20491;-60
2023/08/30 06:15:52;;;;;;;4.73;4.43;;;;;;;;;;6216139;23;20404;-60
2023/08/30 06:18:19;;;;;;;4.53;4.23;;;;;;;;;;6216133;23;20492;-60
2023/08/30 06:20:48;;;;;;;4.93;4.53;;;;;;;;;;6216083;23;20401;-60
2023/08/30 06:23:15;;;;;;;3.70;3.47;;;;;;;;;;6215834;23;20823;-60
2023/08/30 06:25:42;;;;;;;3.33;3.03;;;;;;;;;;6215593;23;20885;-60
2023/08/30 06:28:09;;;;;;;3.90;3.70;;;;;;;;;;6216024;23;20492;-60
2023/08/30 06:30:36;;;;;;;4.03;3.83;;;;;;;;;;6216154;23;20484;-60
2023/08/30 06:33:04;;;;;;;3.97;3.77;;;;;;;;;;6215942;23;20409;-60
2023/08/30 06:35:32;;;;;;;4.07;3.87;;;;;;;;;;6215863;23;20433;-60
2023/08/30 06:38:00;;;;;;;4.30;3.90;;;;;;;;;;6215830;23;20766;-60
2023/08/30 06:40:27;;;;;;;6.10;5.60;;;;;;;;;;6215746;23;20785;-60
2023/08/30 06:42:54;;;;;;;4.10;3.80;;;;;;;;;;6215738;23;20531;-60
2023/08/30 06:45:21;;;;;;;4.90;4.60;;;;;;;;;;6215887;23;20405;-60
2023/08/30 06:47:49;;;;;;;4.30;3.90;;;;;;;;;;6215554;23;20792;-60
2023/08/30 06:50:16;;;;;;;6.43;4.10;;;;;;;;;;6215844;23;20460;-60
2023/08/30 06:52:43;;;;;;;4.13;3.83;;;;;;;;;;6215279;23;20512;-60
2023/08/30 06:55:11;;;;;;;7.00;4.20;;;;;;;;;;6216169;23;20406;-60
2023/08/30 06:57:38;;;;;;;3.10;2.90;;;;;;;;;;6215710;23;20484;-60
2023/08/30 07:00:07;;;;;;;4.83;4.53;;;;;;;;;;6215869;23;20481;-60
2023/08/30 07:02:35;;;;;;;4.03;3.73;;;;;;;;;;6215499;23;20928;-60
2023/08/30 07:05:04;;;;;;;4.63;4.33;;;;;;;;;;6215650;23;20409;-60
2023/08/30 07:07:31;;;;;;;4.03;3.73;;;;;;;;;;6215626;23;20410;-60
2023/08/30 07:09:58;;;;;;;3.93;3.63;;;;;;;;;;6215503;23;20409;-62
2023/08/30 07:12:27;;;;;;;4.73;4.33;;;;;;;;;;6215589;23;20956;-62
2023/08/30 07:14:54;;;;;;;4.53;3.90;;;;;;;;;;6215629;23;20397;-63
2023/08/30 07:17:21;;;;;;;4.20;3.80;;;;;;;;;;6215698;23;20405;-63
2023/08/30 07:19:48;;;;;;;5.60;5.13;;;;;;;;;;6215637;23;20405;-59
2023/08/30 07:22:16;;;;;;;10.33;5.20;;;;;;;;;;6215574;23;20527;-61
2023/08/30 07:24:43;;;;;;;7.53;4.83;;;;;;;;;;6215354;23;20409;-64
2023/08/30 07:27:11;;;;;;;4.47;4.17;;;;;;;;;;6215050;23;20409;-62
2023/08/30 07:29:40;;;;;;;4.30;4.00;;;;;;;;;;6215024;23;20492;-64
2023/08/30 07:32:07;;;;;;;5.00;4.60;;;;;;;;;;6215493;23;20398;-62
2023/08/30 07:34:34;;;;;;;5.13;4.40;;;;;;;;;;6215561;23;20724;-61
2023/08/30 07:37:01;;;;;;;5.43;4.93;;;;;;;;;;6215580;23;20475;-61
2023/08/30 07:39:28;;;;;;;6.73;5.03;;;;;;;;;;6215533;23;20401;-64
2023/08/30 07:41:55;;;;;;;5.83;5.03;;;;;;;;;;6215596;23;20513;-64
2023/08/30 07:44:22;;;;;;;6.10;5.50;;;;;;;;;;6215457;23;20497;-64
2023/08/30 07:46:50;;;;;;;4.20;3.90;;;;;;;;;;6215528;23;20409;-65
2023/08/30 07:49:17;;;;;;;5.40;4.90;;;;;;;;;;6215282;23;20488;-61
2023/08/30 07:51:44;;;;;;;5.33;4.83;;;;;;;;;;6215507;23;20489;-67
2023/08/30 07:54:11;;;;;;;4.97;4.57;;;;;;;;;;6214739;23;20429;-62
2023/08/30 07:56:38;;;;;;;4.30;4.00;;;;;;;;;;6215507;23;20441;-62
2023/08/30 07:59:05;;;;;;;4.37;3.97;;;;;;;;;;6215572;23;20769;-62
2023/08/30 08:01:31;;;;;;;5.07;4.50;;;;;;;;;;6215363;23;20500;-61
2023/08/30 08:04:00;;;;;;;5.73;5.10;;;;;;;;;;6216458;23;20488;-61
2023/08/30 08:06:27;;;;;;;5.50;5.10;;;;;;;;;;6217038;23;20496;-62
2023/08/30 08:08:53;;;;;;;4.87;4.47;;;;;;;;;;6217439;23;20412;-62
2023/08/30 08:11:20;;;;;;;5.20;4.70;;;;;;;;;;6217030;23;20412;-57
2023/08/30 08:13:47;;;;;;;5.30;4.90;;;;;;;;;;6216872;23;20484;-56
2023/08/30 08:16:14;;;;;;;6.40;5.23;;;;;;;;;;6217000;23;20492;-56
2023/08/30 08:18:41;;;;;;;5.70;5.20;;;;;;;;;;6216932;23;20401;-59
2023/08/30 08:21:09;;;;;;;6.13;5.70;;;;;;;;;;6216928;23;20440;-60
2023/08/30 08:23:36;;;;;;;6.03;5.43;;;;;;;;;;6216556;23;20527;-60
2023/08/30 08:26:03;;;;;;;4.97;4.60;;;;;;;;;;6216968;23;20487;-59
2023/08/30 08:28:30;;;;;;;5.53;4.70;;;;;;;;;;6216963;23;20716;-63
2023/08/30 08:30:57;;;;;;;5.90;4.77;;;;;;;;;;6216939;23;20440;-62
2023/08/30 08:33:24;;;;;;;5.17;4.77;;;;;;;;;;6216795;23;20491;-64
2023/08/30 08:35:51;;;;;;;5.63;5.07;;;;;;;;;;6216749;23;20492;-63
2023/08/30 08:38:19;;;;;;;6.70;6.10;;;;;;;;;;6215766;23;20802;-63
2023/08/30 08:40:46;;;;;;;4.97;4.53;;;;;;;;;;6216769;23;20413;-66
2023/08/30 08:43:14;;;;;;;4.80;4.13;;;;;;;;;;6215051;23;20503;-63
2023/08/30 08:45:40;;;;;;;4.07;3.50;;;;;;;;;;6216426;23;20512;-63
2023/08/30 08:48:08;;;;;;;4.93;4.53;;;;;;;;;;6215485;23;20433;-63
2023/08/30 08:50:35;;;;;;;4.17;3.73;;;;;;;;;;6214855;23;20401;-62
2023/08/30 08:53:03;;;;;;;4.23;3.90;;;;;;;;;;6216202;23;20476;-65
2023/08/30 08:55:31;;;;;;;6.23;4.30;;;;;;;;;;6215868;23;20489;-67
2023/08/30 08:57:58;;;;;;;4.60;4.13;;;;;;;;;;6216566;23;20405;-68
2023/08/30 09:00:26;;;;;;;4.50;4.10;;;;;;;;;;6216117;23;20413;-60
2023/08/30 09:02:55;;;;;;;4.57;4.00;;;;;;;;;;6216422;23;20437;-59
2023/08/30 09:05:22;;;;;;;4.60;4.30;;;;;;;;;;6216883;23;20405;-64
2023/08/30 09:07:53;;;;;;;6.67;4.30;;;;;;;;;;6216632;23;20428;-59
2023/08/30 09:10:20;;;;;;;5.63;3.97;;;;;;;;;;6225576;23;20460;-66
2023/08/30 09:12:48;;;;;;;3.30;3.10;;;;;;;;;;6214789;23;20432;-65
2023/08/30 09:15:16;;;;;;;3.23;3.03;;;;;;;;;;6215954;23;20409;-66
2023/08/30 09:17:43;;;;;;;3.27;3.00;;;;;;;;;;6216358;23;20437;-59
2023/08/30 09:20:10;;;;;;;2.90;2.70;;;;;;;;;;6216510;23;20409;-60
2023/08/30 09:22:38;;;;;;;2.50;2.37;;;;;;;;;;6216217;23;20508;-63
2023/08/30 09:25:05;;;;;;;3.83;2.90;;;;;;;;;;6216462;23;20825;-61
2023/08/30 09:27:35;;;;;;;2.77;2.57;;;;;;;;;;6216359;23;20488;-61
2023/08/30 09:30:05;;;;;;;3.90;3.27;;;;;;;;;;6216423;23;20401;-61
2023/08/30 09:32:32;;;;;;;2.60;2.40;;;;;;;;;;6216521;23;20772;-61
2023/08/30 09:34:59;;;;;;;3.10;2.80;;;;;;;;;;6216355;23;20497;-61
2023/08/30 09:37:26;;;;;;;5.03;2.43;;;;;;;;;;6216307;23;20480;-61
2023/08/30 09:39:53;;;;;;;2.30;2.10;;;;;;;;;;6216318;23;20722;-60
2023/08/30 09:42:20;;;;;;;2.60;2.43;;;;;;;;;;6215928;23;20508;-65
2023/08/30 09:44:47;;;;;;;4.37;2.00;;;;;;;;;;6216164;23;20463;-63
2023/08/30 09:47:16;;;;;;;2.30;2.10;;;;;;;;;;6216164;23;20432;-63
2023/08/30 09:49:45;;;;;;;2.10;2.00;;;;;;;;;;6215709;23;20483;-63
2023/08/30 09:52:12;;;;;;;3.83;2.13;;;;;;;;;;6215704;23;20733;-64
2023/08/30 09:54:41;;;;;;;2.50;2.03;;;;;;;;;;6225637;23;20424;-61
2023/08/30 09:57:08;;;;;;;2.40;1.70;;;;;;;;;;6215960;23;20777;-67
2023/08/30 09:59:35;;;;;;;1.97;1.87;;;;;;;;;;6216049;23;20479;-65
2023/08/30 10:02:04;;;;;;;1.93;1.83;;;;;;;;;;6216008;23;20432;-68
2023/08/30 10:04:32;;;;;;;4.03;1.97;;;;;;;;;;6224194;23;20437;-64
2023/08/30 10:07:00;;;;;;;2.30;2.10;;;;;;;;;;6215932;23;20416;-60
2023/08/30 10:09:27;;;;;;;2.70;1.80;;;;;;;;;;6216152;23;20496;-61
2023/08/30 10:11:54;;;;;;;1.80;1.70;;;;;;;;;;6216388;23;20467;-60
2023/08/30 10:14:20;;;;;;;2.90;1.57;;;;;;;;;;6215933;23;20409;-65
2023/08/30 10:16:48;;;;;;;1.40;1.30;;;;;;;;;;6215958;23;20492;-64
2023/08/30 10:19:16;;;;;;;1.63;1.40;;;;;;;;;;6216074;23;20423;-63
2023/08/30 10:21:45;;;;;;;2.03;1.60;;;;;;;;;;6215891;23;20405;-60
2023/08/30 10:24:13;;;;;;;1.53;1.43;;;;;;;;;;6215266;23;20480;-61
2023/08/30 10:26:41;;;;;;;2.90;1.60;;;;;;;;;;6215268;23;20488;-61
2023/08/30 10:29:09;;;;;;;3.10;1.60;;;;;;;;;;6215767;23;20904;-61
2023/08/30 10:31:36;;;;;;;1.90;1.80;;;;;;;;;;6215719;23;20437;-61
2023/08/30 10:34:13;;;;;;;1.60;1.20;;;;;;;;;;6215684;23;20495;-60
2023/08/30 10:36:40;;;;;;;1.53;1.40;;;;;;;;;;6225708;23;20472;-63
2023/08/30 10:39:14;;;;;;;1.80;1.70;;;;;;;;;;6215890;23;20496;-59
2023/08/30 10:41:56;;;;;;;3.00;1.67;;;;;;;;;;6225724;23;20480;-62
2023/08/30 10:44:23;;;;;;;3.60;1.87;;;;;;;;;;6225301;23;20429;-63
2023/08/30 10:46:53;;;;;;;1.80;1.30;;;;;;;;;;6215479;23;20761;-60
2023/08/30 10:49:20;;;;;;;2.33;1.90;;;;;;;;;;6215540;23;20444;-61
2023/08/30 10:51:55;;;;;;;1.83;1.17;;;;;;;;;;6215707;23;20409;-60
2023/08/30 10:54:24;;;;;;;1.53;1.43;;;;;;;;;;6215803;23;20435;-59
2023/08/30 10:56:56;;;;;;;1.53;1.43;;;;;;;;;;6215500;23;20409;-60
2023/08/30 10:59:24;;;;;;;2.43;1.70;;;;;;;;;;6225120;23;20408;-62
2023/08/30 11:01:51;;;;;;;1.93;1.43;;;;;;;;;;6215594;23;20927;-60
2023/08/30 11:04:19;;;;;;;1.40;1.30;;;;;;;;;;6215547;23;20436;-63
2023/08/30 11:06:46;;;;;;;2.20;1.30;;;;;;;;;;6215153;23;20976;-63
2023/08/30 11:09:18;;;;;;;1.80;1.30;;;;;;;;;;6215918;23;20778;-60
2023/08/30 11:11:47;;;;;;;1.70;1.60;;;;;;;;;;6215501;23;20408;-60
2023/08/30 11:14:15;;;;;;;1.60;1.37;;;;;;;;;;6215408;23;20812;-65
2023/08/30 11:16:41;;;;;;;1.07;0.97;;;;;;;;;;6215638;23;20440;-64
2023/08/30 11:19:09;;;;;;;1.13;1.03;;;;;;;;;;6215783;23;20626;-64
2023/08/30 11:21:38;;;;;;;1.70;1.30;;;;;;;;;;6215475;23;20440;-62
2023/08/30 11:24:05;;;;;;;1.30;1.20;;;;;;;;;;6215258;23;20523;-63
2023/08/30 11:26:32;;;;;;;1.43;1.10;;;;;;;;;;6215085;23;20492;-63
2023/08/30 11:29:06;;;;;;;1.47;1.20;;;;;;;;;;6214859;23;20976;-63
2023/08/30 11:31:33;;;;;;;1.20;1.10;;;;;;;;;;6225262;23;20419;-59
2023/08/30 11:34:00;;;;;;;2.70;1.47;;;;;;;;;;6215477;23;20412;-62
2023/08/30 11:36:29;;;;;;;1.40;1.03;;;;;;;;;;6215750;23;20436;-60
2023/08/30 11:38:56;;;;;;;1.73;1.20;;;;;;;;;;6216209;23;20436;-62
2023/08/30 11:41:23;;;;;;;2.47;1.30;;;;;;;;;;6217023;23;20909;-61
2023/08/30 11:43:50;;;;;;;1.23;1.13;;;;;;;;;;6216922;23;20519;-60
2023/08/30 11:46:19;;;;;;;1.97;1.20;;;;;;;;;;6217092;23;20488;-60
2023/08/30 11:48:47;;;;;;;1.57;1.30;;;;;;;;;;6217141;23;20408;-60
2023/08/30 11:51:14;;;;;;;1.80;1.23;;;;;;;;;;6215724;23;20432;-70
2023/08/30 11:53:41;;;;;;;2.03;1.20;;;;;;;;;;6216867;23;20432;-65
2023/08/30 11:56:09;;;;;;;1.50;1.10;;;;;;;;;;6217134;23;20438;-63
2023/08/30 11:58:36;;;;;;;1.40;1.30;;;;;;;;;;6217576;23;20404;-61
2023/08/30 12:01:04;;;;;;;2.70;1.83;;;;;;;;;;6217153;23;20737;-61
2023/08/30 12:03:32;;;;;;;2.80;1.53;;;;;;;;;;6216911;23;20532;-65
2023/08/30 12:05:59;;;;;;;2.50;1.10;;;;;;;;;;6217082;23;20716;-61
2023/08/30 12:08:27;;;;;;;1.37;1.20;;;;;;;;;;6217363;23;20436;-60
2023/08/30 12:10:54;;;;;;;1.47;1.37;;;;;;;;;;6217173;23;20483;-63
2023/08/30 12:13:24;;;;;;;2.40;1.10;;;;;;;;;;6217022;23;20435;-61
2023/08/30 12:15:51;;;;;;;1.63;1.20;;;;;;;;;;6216687;23;20524;-65
2023/08/30 12:18:18;;;;;;;3.33;1.33;;;;;;;;;;6217023;23;20493;-65
2023/08/30 12:20:56;;;;;;;1.50;1.33;;;;;;;;;;6216522;23;20794;-61
2023/08/30 12:23:24;;;;;;;2.40;1.70;;;;;;;;;;6216930;23;20515;-61
2023/08/30 12:26:04;;;;;;;1.50;1.20;;;;;;;;;;6216270;23;20800;-61
2023/08/30 12:28:32;;;;;;;1.27;1.17;;;;;;;;;;6227000;23;20393;-61
2023/08/30 12:30:59;;;;;;;1.63;1.30;;;;;;;;;;6216563;23;20488;-61
2023/08/30 12:33:26;;;;;;;1.57;1.00;;;;;;;;;;6216404;23;20794;-62
2023/08/30 12:35:53;;;;;;;2.50;1.57;;;;;;;;;;6217266;23;20401;-59
2023/08/30 12:38:21;;;;;;;4.10;1.33;;;;;;;;;;6217062;23;20433;-61
2023/08/30 12:40:49;;;;;;;1.10;1.00;;;;;;;;;;6216483;23;20428;-60
2023/08/30 12:43:17;;;;;;;1.60;1.03;;;;;;;;;;6216138;23;20414;-61
2023/08/30 12:45:44;;;;;;;1.53;1.23;;;;;;;;;;6216612;23;20405;-61
2023/08/30 12:48:12;;;;;;;1.30;1.20;;;;;;;;;;6216745;23;20433;-61
2023/08/30 12:50:39;;;;;;;1.63;1.00;;;;;;;;;;6216163;23;20487;-61
2023/08/30 12:53:07;;;;;;;2.70;1.20;;;;;;;;;;6216135;23;20521;-60
2023/08/30 12:55:35;;;;;;;2.60;1.20;;;;;;;;;;6216527;23;20437;-61
2023/08/30 12:58:02;;;;;;;2.03;1.30;;;;;;;;;;6215575;23;20507;-60
2023/08/30 13:00:29;;;;;;;1.40;1.10;;;;;;;;;;6216766;23;20484;-61
2023/08/30 13:02:56;;;;;;;1.97;1.17;;;;;;;;;;6216701;23;20500;-61
2023/08/30 13:05:23;;;;;;;1.23;1.13;;;;;;;;;;6216663;23;20533;-61
2023/08/30 13:07:50;;;;;;;1.30;1.20;;;;;;;;;;6216697;23;20806;-61
2023/08/30 13:10:18;;;;;;;1.10;1.00;;;;;;;;;;6216571;23;20428;-61
2023/08/30 13:12:46;;;;;;;2.63;1.20;;;;;;;;;;6215671;23;20451;-61
2023/08/30 13:15:13;;;;;;;1.40;1.30;;;;;;;;;;6215297;23;20495;-60
2023/08/30 13:17:40;;;;;;;2.07;1.43;;;;;;;;;;6216277;23;20441;-60
2023/08/30 13:20:07;;;;;;;1.67;1.57;;;;;;;;;;6216156;23;20467;-60
2023/08/30 13:22:34;;;;;;;1.40;1.30;;;;;;;;;;6216468;23;20409;-60
2023/08/30 13:25:01;;;;;;;1.30;1.20;;;;;;;;;;6216454;23;20529;-60
2023/08/30 13:27:28;;;;;;;1.43;1.33;;;;;;;;;;6216023;23;20955;-60
2023/08/30 13:29:56;;;;;;;1.30;1.20;;;;;;;;;;6216500;23;20484;-60
2023/08/30 13:32:23;;;;;;;1.50;1.40;;;;;;;;;;6216382;23;20405;-60
2023/08/30 13:34:51;;;;;;;3.70;1.17;;;;;;;;;;6216300;23;20713;-60
2023/08/30 13:37:18;;;;;;;1.20;1.10;;;;;;;;;;6216382;23;20432;-60
2023/08/30 13:39:45;;;;;;;2.50;1.10;;;;;;;;;;6216421;23;20401;-60
2023/08/30 13:42:12;;;;;;;1.47;1.27;;;;;;;;;;6216341;23;20401;-60
2023/08/30 13:44:41;;;;;;;1.10;1.00;;;;;;;;;;6215761;23;20523;-60
2023/08/30 13:47:09;;;;;;;1.67;1.57;;;;;;;;;;6216173;23;20405;-60
2023/08/30 13:49:37;;;;;;;2.57;1.10;;;;;;;;;;6216325;23;20496;-60
2023/08/30 13:52:04;;;;;;;2.80;1.60;;;;;;;;;;6216297;23;20405;-60
2023/08/30 13:54:31;;;;;;;1.50;1.40;;;;;;;;;;6215967;23;20504;-61
2023/08/30 13:56:58;;;;;;;4.63;1.63;;;;;;;;;;6216236;23;20484;-60
2023/08/30 13:59:25;;;;;;;1.60;1.50;;;;;;;;;;6216216;23;20713;-60
2023/08/30 14:01:52;;;;;;;1.50;1.40;;;;;;;;;;6215839;23;20786;-60
2023/08/30 14:04:20;;;;;;;1.30;1.20;;;;;;;;;;6216068;23;20272;-60
2023/08/30 14:06:47;;;;;;;1.30;1.20;;;;;;;;;;6216116;23;20467;-60
2023/08/30 14:09:14;;;;;;;2.07;1.30;;;;;;;;;;6216157;23;20754;-60
2023/08/30 14:11:41;;;;;;;1.60;1.50;;;;;;;;;;6216225;23;20557;-61
2023/08/30 14:14:08;;;;;;;2.07;1.53;;;;;;;;;;6216002;23;20516;-60
2023/08/30 14:16:36;;;;;;;1.93;1.73;;;;;;;;;;6216163;23;20544;-60
2023/08/30 14:19:05;;;;;;;4.80;1.47;;;;;;;;;;6215981;23;20427;-60
2023/08/30 14:21:33;;;;;;;1.73;1.33;;;;;;;;;;6215762;23;20407;-61
2023/08/30 14:24:00;;;;;;;1.30;1.17;;;;;;;;;;6215772;23;20428;-60
2023/08/30 14:26:27;;;;;;;1.80;1.60;;;;;;;;;;6215993;23;20492;-60
2023/08/30 14:28:54;;;;;;;1.90;1.40;;;;;;;;;;6216086;23;20786;-60
2023/08/30 14:31:21;;;;;;;1.50;1.40;;;;;;;;;;6216306;23;20436;-60
2023/08/30 14:33:48;;;;;;;2.80;1.37;;;;;;;;;;6216140;23;20487;-60
2023/08/30 14:36:15;;;;;;;6.43;1.63;;;;;;;;;;6215894;23;20865;-61
2023/08/30 14:38:43;;;;;;;5.17;1.40;;;;;;;;;;6215914;23;20411;-60
2023/08/30 14:41:12;;;;;;;1.40;1.30;;;;;;;;;;6215839;23;20500;-60
2023/08/30 14:43:39;;;;;;;1.20;1.10;;;;;;;;;;6215710;23;20777;-60
2023/08/30 14:46:06;;;;;;;1.70;1.30;;;;;;;;;;6215941;23;20442;-60